Time;durP1;ratioP1;P1;durP2;ratioP2;P2;SDS_P1;SDS_P2;PMS_P1;PMS_P2;Temp;Humidity;BMP_temperature;BMP_pressure;BME280_temperature;BME280_humidity;BME280_pressure;Samples;Min_cycle;Max_cycle;Signal;HPM_P1;HPM_P2
2022/11/19 00:01:14;;;;;;;1.23;1.13;;;8.50;99.90;;;;;;5036262;28;20466;-73
2022/11/19 00:03:41;;;;;;;2.43;1.67;;;8.50;99.90;;;;;;5013435;28;20495;-72
2022/11/19 00:06:16;;;;;;;1.30;1.20;;;8.50;99.90;;;;;;5029296;28;20474;-73
2022/11/19 00:08:42;;;;;;;2.87;1.87;;;8.50;99.90;;;;;;5019677;28;20486;-73
2022/11/19 00:11:11;;;;;;;1.30;1.20;;;8.60;99.90;;;;;;5029003;28;20474;-73
2022/11/19 00:13:38;;;;;;;1.77;1.17;;;8.60;99.90;;;;;;5022360;28;20877;-71
2022/11/19 00:16:13;;;;;;;1.87;1.40;;;8.60;99.90;;;;;;5052902;28;20462;-70
2022/11/19 00:18:40;;;;;;;1.50;1.40;;;8.60;99.90;;;;;;5034555;28;20493;-72
2022/11/19 00:21:10;;;;;;;1.27;1.10;;;8.60;99.90;;;;;;5046724;28;20463;-72
2022/11/19 00:23:39;;;;;;;3.70;1.70;;;8.60;99.90;;;;;;5032081;28;20517;-72
2022/11/19 00:26:12;;;;;;;3.03;1.70;;;8.60;99.90;;;;;;5035190;28;20474;-71
2022/11/19 00:28:38;;;;;;;1.30;1.20;;;8.60;99.90;;;;;;5030825;28;20463;-72
2022/11/19 00:31:06;;;;;;;2.53;1.80;;;8.60;99.90;;;;;;5018449;28;20551;-73
2022/11/19 00:33:32;;;;;;;2.60;1.60;;;8.60;99.90;;;;;;5011983;28;20487;-73
2022/11/19 00:35:59;;;;;;;1.70;1.50;;;8.60;99.90;;;;;;5025513;28;20518;-73
2022/11/19 00:38:26;;;;;;;1.60;1.50;;;8.60;99.90;;;;;;5025329;28;20327;-73
2022/11/19 00:40:51;;;;;;;1.57;1.30;;;8.60;99.90;;;;;;5022564;28;20969;-74
2022/11/19 00:46:02;;;;;;;1.53;1.27;;;8.60;99.90;;;;;;5027678;28;20278;-72
2022/11/19 00:48:27;;;;;;;1.80;1.70;;;8.60;99.90;;;;;;5028250;28;21172;-73
2022/11/19 00:50:53;;;;;;;2.00;1.70;;;8.60;99.90;;;;;;5028220;28;20231;-73
2022/11/19 00:53:18;;;;;;;1.50;1.40;;;8.60;99.90;;;;;;5026612;28;20221;-72
2022/11/19 00:55:44;;;;;;;1.93;1.53;;;8.60;99.90;;;;;;5026503;28;20271;-72
2022/11/19 00:58:10;;;;;;;1.40;1.30;;;8.60;99.90;;;;;;5027858;28;20678;-72
2022/11/19 01:00:36;;;;;;;2.53;1.63;;;8.60;99.90;;;;;;5026493;28;20259;-72
2022/11/19 01:03:02;;;;;;;2.60;1.43;;;8.60;99.90;;;;;;5026519;28;20239;-72
2022/11/19 01:05:28;;;;;;;1.63;1.40;;;8.60;99.90;;;;;;5026892;28;20459;-72
2022/11/19 01:07:53;;;;;;;1.80;1.70;;;8.60;99.90;;;;;;5015689;28;20208;-72
2022/11/19 01:10:19;;;;;;;1.73;1.40;;;8.60;99.90;;;;;;5031579;28;20759;-73
2022/11/19 01:15:29;;;;;;;2.90;1.47;;;8.60;99.90;;;;;;5028674;28;20216;-74
2022/11/19 01:17:54;;;;;;;2.17;1.70;;;8.60;99.90;;;;;;5028837;28;20469;-72
2022/11/19 01:20:20;;;;;;;1.40;1.30;;;8.60;99.90;;;;;;5030724;28;20242;-73
2022/11/19 01:22:46;;;;;;;1.80;1.30;;;8.60;99.90;;;;;;5033007;28;20236;-73
2022/11/19 01:25:13;;;;;;;3.60;2.60;;;8.60;99.90;;;;;;5047376;28;20661;-73
2022/11/19 01:27:39;;;;;;;2.50;1.93;;;8.60;99.90;;;;;;5024907;28;20220;-72
2022/11/19 01:30:05;;;;;;;2.00;1.80;;;8.60;99.90;;;;;;5031862;28;20482;-72
2022/11/19 01:32:31;;;;;;;3.87;1.83;;;8.60;99.90;;;;;;5029391;28;20447;-73
2022/11/19 01:34:57;;;;;;;6.83;1.93;;;8.60;99.90;;;;;;5037802;28;20517;-73
2022/11/19 01:37:23;;;;;;;2.67;1.83;;;8.60;99.90;;;;;;5035896;28;20451;-72
2022/11/19 01:39:48;;;;;;;2.10;1.60;;;8.60;99.90;;;;;;5034809;28;20643;-73
2022/11/19 01:42:48;;;;;;;2.60;1.50;;;8.60;99.90;;;;;;5030302;28;20228;-73
2022/11/19 01:45:16;;;;;;;2.97;1.93;;;8.60;99.90;;;;;;5033754;28;20316;-73
2022/11/19 01:47:41;;;;;;;1.57;1.47;;;8.60;99.90;;;;;;5033351;28;20466;-72
2022/11/19 01:50:07;;;;;;;1.77;1.67;;;8.60;99.90;;;;;;5035309;28;20470;-72
2022/11/19 01:52:33;;;;;;;2.57;2.00;;;8.60;99.90;;;;;;5045894;28;20228;-72
2022/11/19 01:55:00;;;;;;;3.47;1.70;;;8.60;99.90;;;;;;5013084;28;20232;-73
2022/11/19 01:57:26;;;;;;;5.20;1.70;;;8.60;99.90;;;;;;5032579;28;20227;-73
2022/11/19 01:59:52;;;;;;;2.30;2.10;;;8.60;99.90;;;;;;5051624;28;20475;-72
2022/11/19 02:02:21;;;;;;;1.93;1.83;;;8.60;99.90;;;;;;5044059;28;20462;-73
2022/11/19 02:04:50;;;;;;;2.87;2.20;;;8.60;99.90;;;;;;5037068;28;20454;-72
2022/11/19 02:07:17;;;;;;;3.00;1.53;;;8.60;99.90;;;;;;5031102;28;20468;-72
2022/11/19 02:09:44;;;;;;;2.40;2.20;;;8.60;99.90;;;;;;5030655;28;20562;-72
2022/11/19 02:12:16;;;;;;;2.40;2.10;;;8.60;99.90;;;;;;5034096;28;20562;-73
2022/11/19 02:15:02;;;;;;;3.27;2.40;;;8.60;99.90;;;;;;5054072;28;20453;-72
2022/11/19 02:17:37;;;;;;;2.50;2.20;;;8.60;99.90;;;;;;5014135;28;20466;-72
2022/11/19 02:20:08;;;;;;;5.97;2.83;;;8.60;99.90;;;;;;5029386;28;20455;-72
2022/11/19 02:22:37;;;;;;;5.47;3.20;;;8.60;99.90;;;;;;5020087;28;20515;-72
2022/11/19 02:25:24;;;;;;;5.67;4.00;;;8.60;99.90;;;;;;5050491;28;20456;-71
2022/11/19 02:27:57;;;;;;;6.03;3.80;;;8.60;99.90;;;;;;5044689;28;20446;-72
2022/11/19 02:30:23;;;;;;;5.97;4.73;;;8.60;99.90;;;;;;5036834;28;20474;-73
2022/11/19 02:32:54;;;;;;;5.30;4.10;;;8.60;99.90;;;;;;5047272;28;20448;-73
2022/11/19 02:35:29;;;;;;;6.80;4.63;;;8.50;99.90;;;;;;5023628;28;20698;-73
2022/11/19 02:38:01;;;;;;;8.93;5.13;;;8.50;99.90;;;;;;5020249;28;20467;-72
2022/11/19 02:40:45;;;;;;;5.83;4.87;;;8.50;99.90;;;;;;5013803;28;20456;-74
2022/11/19 02:43:21;;;;;;;6.67;4.53;;;8.50;99.90;;;;;;5022408;28;20446;-73
2022/11/19 02:45:57;;;;;;;7.40;4.53;;;8.40;99.90;;;;;;5044302;28;20450;-73
2022/11/19 02:48:30;;;;;;;5.73;3.97;;;8.40;99.90;;;;;;5028716;28;20472;-73
2022/11/19 02:50:59;;;;;;;8.33;4.97;;;8.40;99.90;;;;;;5037400;28;20459;-73
2022/11/19 02:53:25;;;;;;;5.83;4.70;;;8.40;99.90;;;;;;5021842;28;20461;-73
2022/11/19 03:04:29;;;;;;;7.90;5.50;;;8.20;99.90;;;;;;5050430;28;20510;-73
2022/11/19 03:07:14;;;;;;;6.97;4.73;;;8.20;99.90;;;;;;5016680;28;20468;-72
2022/11/19 03:09:47;;;;;;;9.97;5.50;;;8.20;99.90;;;;;;5037819;28;21059;-72
2022/11/19 03:12:35;;;;;;;6.53;5.00;;;8.20;99.90;;;;;;5048067;28;20534;-73
2022/11/19 03:18:21;;;;;;;4.50;3.40;;;8.20;99.90;;;;;;5028626;28;20481;-72
2022/11/19 03:21:05;;;;;;;6.10;4.50;;;8.10;99.90;;;;;;5022821;28;20499;-73
2022/11/19 03:23:41;;;;;;;8.70;5.57;;;8.10;99.90;;;;;;5050878;28;20873;-73
2022/11/19 03:26:19;;;;;;;7.07;5.33;;;8.10;99.90;;;;;;5023540;28;20447;-73
2022/11/19 03:28:46;;;;;;;7.17;4.67;;;8.10;99.90;;;;;;5044616;28;20508;-73
2022/11/19 03:31:12;;;;;;;6.97;4.90;;;8.00;99.90;;;;;;5027728;28;20530;-72
2022/11/19 03:33:46;;;;;;;9.97;5.87;;;8.00;99.90;;;;;;5035456;28;20470;-73
2022/11/19 03:36:20;;;;;;;7.60;4.60;;;8.00;99.90;;;;;;5030132;28;20533;-72
2022/11/19 03:38:50;;;;;;;8.27;5.33;;;8.00;99.90;;;;;;5042367;28;20461;-73
2022/11/19 03:41:19;;;;;;;7.03;4.97;;;8.00;99.90;;;;;;5065339;28;20523;-73
2022/11/19 03:43:51;;;;;;;7.80;4.77;;;8.00;99.90;;;;;;5059079;28;20463;-73
2022/11/19 03:46:19;;;;;;;8.10;5.10;;;8.00;99.90;;;;;;5033667;28;20463;-73
2022/11/19 03:48:48;;;;;;;8.63;5.27;;;7.90;99.90;;;;;;5027894;28;20451;-74
2022/11/19 03:51:23;;;;;;;7.73;5.33;;;7.90;99.90;;;;;;5023612;28;20511;-73
2022/11/19 03:53:48;;;;;;;6.03;4.60;;;7.90;99.90;;;;;;5009901;28;20547;-73
2022/11/19 03:56:19;;;;;;;5.73;4.37;;;7.80;99.90;;;;;;5013557;28;20527;-73
2022/11/19 03:58:45;;;;;;;6.20;4.43;;;7.80;99.90;;;;;;5029446;28;20307;-73
2022/11/19 04:01:12;;;;;;;6.00;4.53;;;7.80;99.90;;;;;;5033757;28;20475;-73
2022/11/19 04:03:38;;;;;;;5.83;4.23;;;7.70;99.90;;;;;;5036294;28;20463;-73
2022/11/19 04:06:05;;;;;;;7.23;5.07;;;7.70;99.90;;;;;;5027976;28;20547;-72
2022/11/19 04:08:31;;;;;;;7.27;3.90;;;7.70;99.90;;;;;;5036685;28;20224;-73
2022/11/19 04:10:57;;;;;;;6.47;4.10;;;7.70;99.90;;;;;;5031529;28;20459;-71
2022/11/19 04:13:23;;;;;;;5.80;3.97;;;7.70;99.90;;;;;;5026327;28;20527;-73
2022/11/19 04:15:50;;;;;;;7.63;5.00;;;7.70;99.90;;;;;;5029921;28;20853;-73
2022/11/19 04:18:16;;;;;;;5.13;3.77;;;7.60;99.90;;;;;;5062106;28;20462;-73
2022/11/19 04:20:44;;;;;;;6.07;3.60;;;7.60;99.90;;;;;;5029119;28;20972;-72
2022/11/19 04:23:09;;;;;;;5.00;4.03;;;7.60;99.90;;;;;;5019411;28;20274;-73
2022/11/19 04:25:35;;;;;;;5.80;4.20;;;7.60;99.90;;;;;;5032874;28;20857;-72
2022/11/19 04:28:01;;;;;;;5.30;4.00;;;7.60;99.90;;;;;;5027265;28;20648;-73
2022/11/19 04:30:26;;;;;;;6.13;3.80;;;7.50;99.90;;;;;;5030749;28;20228;-73
2022/11/19 04:32:52;;;;;;;5.90;3.67;;;7.50;99.90;;;;;;5011817;28;20721;-73
2022/11/19 04:35:20;;;;;;;6.73;4.70;;;7.40;99.90;;;;;;5029263;28;20244;-73
2022/11/19 04:37:46;;;;;;;6.50;4.00;;;7.40;99.90;;;;;;5030400;28;20216;-73
2022/11/19 04:40:13;;;;;;;6.50;4.10;;;7.40;99.90;;;;;;5042126;28;20439;-73
2022/11/19 04:42:38;;;;;;;5.47;3.70;;;7.40;99.90;;;;;;5030977;28;20988;-72
2022/11/19 04:45:04;;;;;;;7.90;4.50;;;7.40;99.90;;;;;;5041930;28;20454;-71
2022/11/19 04:47:30;;;;;;;6.00;3.73;;;7.40;99.90;;;;;;5040012;28;20228;-73
2022/11/19 04:49:56;;;;;;;5.93;3.80;;;7.30;99.90;;;;;;5032109;28;20447;-72
2022/11/19 04:52:21;;;;;;;4.83;3.47;;;7.30;99.90;;;;;;5030435;28;20222;-73
2022/11/19 04:54:47;;;;;;;5.53;4.17;;;7.20;99.90;;;;;;5049315;28;20217;-73
2022/11/19 04:57:13;;;;;;;4.00;3.43;;;7.20;99.90;;;;;;5052875;28;20240;-73
2022/11/19 04:59:38;;;;;;;8.80;3.33;;;7.20;99.90;;;;;;5031736;28;20240;-73
2022/11/19 05:02:04;;;;;;;3.70;3.07;;;7.20;99.90;;;;;;5033090;28;20220;-73
2022/11/19 05:04:30;;;;;;;7.53;4.63;;;7.20;99.90;;;;;;5050519;28;20220;-73
2022/11/19 05:06:55;;;;;;;6.20;3.20;;;7.20;99.90;;;;;;5024799;28;20227;-73
2022/11/19 05:09:21;;;;;;;4.37;3.13;;;7.10;99.90;;;;;;5005539;28;20308;-73
2022/11/19 05:11:46;;;;;;;5.63;3.60;;;7.00;99.90;;;;;;5030839;28;20244;-73
2022/11/19 05:14:12;;;;;;;5.20;3.87;;;7.00;99.90;;;;;;5030619;28;20673;-72
2022/11/19 05:16:38;;;;;;;5.90;3.87;;;7.00;99.90;;;;;;5035336;28;20681;-73
2022/11/19 05:19:03;;;;;;;6.00;3.47;;;7.00;99.90;;;;;;5019632;28;20711;-73
2022/11/19 05:21:29;;;;;;;4.83;3.97;;;6.90;99.90;;;;;;5052116;28;20286;-73
2022/11/19 05:23:55;;;;;;;5.10;3.87;;;6.90;99.90;;;;;;5039010;28;20227;-73
2022/11/19 05:26:20;;;;;;;5.67;4.10;;;6.80;99.90;;;;;;5019908;28;20627;-73
2022/11/19 05:28:46;;;;;;;5.27;3.30;;;6.80;99.90;;;;;;5030696;28;20224;-73
2022/11/19 05:31:12;;;;;;;6.80;4.27;;;6.90;99.90;;;;;;5040643;28;21311;-73
2022/11/19 05:33:37;;;;;;;6.43;3.63;;;6.80;99.90;;;;;;5036031;28;20789;-74
2022/11/19 05:36:03;;;;;;;4.87;3.50;;;6.80;99.90;;;;;;5043776;28;20704;-73
2022/11/19 05:38:29;;;;;;;6.70;3.67;;;6.80;99.90;;;;;;5028607;28;20240;-73
2022/11/19 05:40:55;;;;;;;6.43;3.80;;;6.80;99.90;;;;;;5031878;28;20575;-73
2022/11/19 05:43:21;;;;;;;5.20;3.10;;;6.70;99.90;;;;;;5030646;28;20224;-73
2022/11/19 05:45:46;;;;;;;6.93;4.20;;;6.70;99.90;;;;;;5051979;28;20223;-73
2022/11/19 05:48:12;;;;;;;4.40;3.17;;;6.70;99.90;;;;;;5046262;28;20231;-73
2022/11/19 05:50:41;;;;;;;3.87;2.90;;;6.60;99.90;;;;;;5029680;28;20244;-73
2022/11/19 05:53:06;;;;;;;4.60;2.80;;;6.60;99.90;;;;;;5005871;28;20227;-73
2022/11/19 05:55:32;;;;;;;5.23;3.10;;;6.60;99.90;;;;;;5023774;28;20489;-73
2022/11/19 05:57:58;;;;;;;4.77;2.57;;;6.50;99.90;;;;;;5033596;28;20238;-73
2022/11/19 06:00:24;;;;;;;5.40;3.83;;;6.40;99.90;;;;;;5035987;28;20335;-73
2022/11/19 06:02:49;;;;;;;5.00;3.00;;;6.40;99.90;;;;;;5016625;28;20302;-73
2022/11/19 06:05:15;;;;;;;3.47;2.90;;;6.40;99.90;;;;;;5050540;28;20212;-73
2022/11/19 06:07:41;;;;;;;4.33;2.83;;;6.50;99.90;;;;;;5036821;28;20224;-73
2022/11/19 06:10:07;;;;;;;2.90;2.60;;;6.50;99.90;;;;;;5037293;28;20235;-72
2022/11/19 06:12:33;;;;;;;4.23;3.07;;;6.40;99.90;;;;;;5033448;28;20215;-72
2022/11/19 06:15:00;;;;;;;3.50;2.50;;;6.40;99.90;;;;;;5045449;28;20505;-72
2022/11/19 06:17:27;;;;;;;4.30;3.17;;;6.30;99.90;;;;;;5031458;28;20313;-73
2022/11/19 06:19:52;;;;;;;6.17;3.23;;;6.30;99.90;;;;;;5016522;28;20487;-72
2022/11/19 06:22:18;;;;;;;3.27;2.50;;;6.30;99.90;;;;;;5030271;28;20509;-72
2022/11/19 06:24:44;;;;;;;3.97;2.90;;;6.30;99.90;;;;;;5046306;28;20216;-71
2022/11/19 06:27:09;;;;;;;4.00;2.70;;;6.30;99.90;;;;;;5033934;28;20228;-71
2022/11/19 06:29:35;;;;;;;5.33;3.73;;;6.30;99.90;;;;;;5029862;28;20314;-72
2022/11/19 06:32:00;;;;;;;5.77;3.30;;;6.20;99.90;;;;;;5028974;28;20209;-72
2022/11/19 06:34:26;;;;;;;6.33;5.23;;;6.20;99.90;;;;;;5020218;28;20232;-72
2022/11/19 06:36:52;;;;;;;10.60;6.70;;;6.20;99.90;;;;;;5046401;28;20636;-73
2022/11/19 06:39:18;;;;;;;7.30;4.57;;;6.20;99.90;;;;;;5015344;28;20288;-72
2022/11/19 06:41:44;;;;;;;7.47;4.70;;;6.30;99.90;;;;;;5033473;28;20217;-72
2022/11/19 06:44:09;;;;;;;8.53;4.90;;;6.20;99.90;;;;;;5013793;28;20534;-72
2022/11/19 06:46:35;;;;;;;10.07;4.83;;;6.30;99.90;;;;;;5029107;28;20220;-71
2022/11/19 06:49:02;;;;;;;10.80;4.70;;;6.20;99.90;;;;;;5036969;28;20677;-73
2022/11/19 06:51:28;;;;;;;6.80;4.27;;;6.10;99.90;;;;;;5043830;28;20291;-73
2022/11/19 06:53:54;;;;;;;5.97;4.00;;;6.10;99.90;;;;;;5032696;28;20446;-73
2022/11/19 06:56:19;;;;;;;5.53;4.17;;;6.00;99.90;;;;;;5017949;28;20204;-73
2022/11/19 06:58:45;;;;;;;8.23;4.80;;;6.00;99.90;;;;;;5038110;28;20290;-73
2022/11/19 07:01:13;;;;;;;7.50;4.50;;;6.00;99.90;;;;;;5033043;28;20632;-73
2022/11/19 07:03:38;;;;;;;6.27;3.73;;;6.00;99.90;;;;;;5046713;28;20244;-73
2022/11/19 07:06:04;;;;;;;7.60;4.03;;;6.00;99.90;;;;;;5017360;28;20570;-73
2022/11/19 07:08:33;;;;;;;4.60;3.53;;;6.00;99.90;;;;;;5029346;28;20231;-73
2022/11/19 07:10:59;;;;;;;5.80;4.27;;;5.90;99.90;;;;;;5025982;28;20240;-72
2022/11/19 07:13:55;;;;;;;7.77;5.10;;;5.90;99.90;;;;;;5030956;28;20459;-73
2022/11/19 07:16:11;;;;;;;9.57;5.40;;;5.90;99.90;;;;;;5028884;28;20458;-73
2022/11/19 07:18:36;;;;;;;7.53;4.27;;;5.90;99.90;;;;;;5030078;28;20475;-74
2022/11/19 07:21:02;;;;;;;8.13;4.43;;;5.80;99.90;;;;;;5049851;28;20234;-73
2022/11/19 07:23:28;;;;;;;7.13;5.53;;;5.80;99.90;;;;;;5030585;28;20212;-73
2022/11/19 07:26:00;;;;;;;8.00;4.40;;;5.70;99.90;;;;;;5044548;28;20584;-73
2022/11/19 07:28:26;;;;;;;5.87;4.00;;;5.70;99.90;;;;;;5028957;28;20212;-73
2022/11/19 07:30:51;;;;;;;7.00;4.30;;;5.70;99.90;;;;;;5002322;28;20463;-73
2022/11/19 07:33:17;;;;;;;7.97;4.70;;;5.60;99.90;;;;;;5034675;28;20228;-73
2022/11/19 07:35:43;;;;;;;7.97;4.57;;;5.70;99.90;;;;;;5046215;28;20228;-73
2022/11/19 07:38:08;;;;;;;5.80;3.97;;;5.70;99.90;;;;;;5027468;28;20236;-73
2022/11/19 07:40:34;;;;;;;7.40;5.10;;;5.70;99.90;;;;;;5034695;28;20259;-73
2022/11/19 07:42:59;;;;;;;12.17;6.60;;;5.70;99.90;;;;;;5045696;28;20290;-73
2022/11/19 07:45:25;;;;;;;11.07;7.67;;;5.60;99.90;;;;;;5046527;28;20217;-73
2022/11/19 07:47:51;;;;;;;10.57;6.27;;;5.60;99.90;;;;;;5033743;28;20984;-71
2022/11/19 07:50:17;;;;;;;8.13;5.17;;;5.60;99.90;;;;;;5008977;28;20637;-72
2022/11/19 07:52:43;;;;;;;6.63;4.60;;;5.60;99.90;;;;;;5029299;28;20308;-73
2022/11/19 07:55:09;;;;;;;6.23;4.07;;;5.60;99.90;;;;;;5044953;28;20231;-73
2022/11/19 07:57:35;;;;;;;8.50;5.03;;;5.50;99.90;;;;;;5028751;28;20490;-73
2022/11/19 08:00:01;;;;;;;7.93;4.63;;;5.60;99.90;;;;;;5031580;28;20494;-73
2022/11/19 08:02:27;;;;;;;6.63;4.27;;;5.50;99.90;;;;;;5034697;28;20209;-73
2022/11/19 08:04:52;;;;;;;6.50;4.37;;;5.60;99.90;;;;;;5038394;28;20447;-73
2022/11/19 08:07:18;;;;;;;7.57;4.57;;;5.60;99.90;;;;;;5034739;28;20224;-73
2022/11/19 08:09:44;;;;;;;7.17;4.87;;;5.50;99.90;;;;;;5031204;28;20303;-73
2022/11/19 08:12:09;;;;;;;10.83;5.03;;;5.50;99.90;;;;;;5036248;28;20311;-73
2022/11/19 08:14:35;;;;;;;6.03;4.90;;;5.50;99.90;;;;;;5033747;28;20220;-73
2022/11/19 08:19:45;;;;;;;7.77;3.97;;;5.40;99.90;;;;;;5046978;28;20247;-73
2022/11/19 08:22:11;;;;;;;6.57;4.70;;;5.40;99.90;;;;;;5036010;28;20478;-73
2022/11/19 08:24:37;;;;;;;6.10;3.93;;;5.40;99.90;;;;;;5048034;28;20224;-73
2022/11/19 08:27:04;;;;;;;5.57;4.10;;;5.40;99.90;;;;;;5037015;28;20216;-73
2022/11/19 08:29:30;;;;;;;9.57;4.40;;;5.40;99.90;;;;;;5037655;28;20450;-72
2022/11/19 08:31:56;;;;;;;6.97;4.30;;;5.50;99.90;;;;;;5045353;28;20501;-73
2022/11/19 08:34:21;;;;;;;6.60;4.40;;;5.50;99.90;;;;;;5020403;28;20443;-73
2022/11/19 08:36:47;;;;;;;6.07;3.73;;;5.40;99.90;;;;;;5055964;28;20576;-73
2022/11/19 08:39:13;;;;;;;4.90;3.83;;;5.40;99.90;;;;;;5035042;28;20227;-72
2022/11/19 08:44:23;;;;;;;9.27;4.43;;;5.30;99.90;;;;;;5034447;28;20212;-73
2022/11/19 08:46:49;;;;;;;6.17;3.97;;;5.30;99.90;;;;;;5035392;28;20463;-73
2022/11/19 08:49:15;;;;;;;6.43;4.00;;;5.30;99.90;;;;;;5016645;28;20223;-72
2022/11/19 08:51:41;;;;;;;5.50;3.87;;;5.30;99.90;;;;;;5019218;28;20224;-72
2022/11/19 08:54:07;;;;;;;7.60;4.13;;;5.40;99.90;;;;;;5031831;28;20208;-73
2022/11/19 08:56:32;;;;;;;4.20;3.27;;;5.40;99.90;;;;;;5025026;28;20208;-73
2022/11/19 08:58:58;;;;;;;4.93;3.40;;;5.30;99.90;;;;;;5006736;28;20475;-73
2022/11/19 09:01:24;;;;;;;5.07;4.10;;;5.30;99.90;;;;;;5030140;28;20230;-73
2022/11/19 09:03:49;;;;;;;6.13;4.47;;;5.20;99.90;;;;;;5055624;28;20224;-73
2022/11/19 09:06:15;;;;;;;4.67;3.70;;;5.20;99.90;;;;;;5030537;28;20220;-73
2022/11/19 09:08:42;;;;;;;6.30;3.90;;;5.30;99.90;;;;;;5021513;28;20220;-73
2022/11/19 09:11:10;;;;;;;4.73;3.40;;;5.30;99.90;;;;;;5027318;28;20309;-73
2022/11/19 09:13:36;;;;;;;5.27;3.70;;;5.30;99.90;;;;;;5047661;28;20465;-73
2022/11/19 09:16:02;;;;;;;4.03;3.23;;;5.30;99.90;;;;;;5023829;28;20451;-72
2022/11/19 09:18:29;;;;;;;6.40;4.00;;;5.30;99.90;;;;;;5025728;28;20520;-73
2022/11/19 09:20:55;;;;;;;6.70;3.87;;;5.30;99.90;;;;;;5034420;28;20216;-73
2022/11/19 09:23:26;;;;;;;4.30;3.13;;;5.30;99.90;;;;;;5031731;28;20451;-73
2022/11/19 09:26:00;;;;;;;6.10;4.20;;;5.30;99.90;;;;;;5014238;28;20570;-73
2022/11/19 09:28:27;;;;;;;3.47;2.87;;;5.20;99.90;;;;;;5029954;28;20463;-73
2022/11/19 09:30:58;;;;;;;6.53;4.67;;;5.20;99.90;;;;;;5048251;28;20448;-73
2022/11/19 09:33:24;;;;;;;4.77;2.90;;;5.20;99.90;;;;;;5059832;28;20462;-73
2022/11/19 09:35:50;;;;;;;6.23;4.27;;;5.20;99.90;;;;;;5044383;28;20459;-73
2022/11/19 09:38:15;;;;;;;4.43;3.10;;;5.20;99.90;;;;;;5032124;28;20474;-73
2022/11/19 09:40:51;;;;;;;4.20;2.77;;;5.20;99.90;;;;;;5032579;28;20228;-73
2022/11/19 09:43:38;;;;;;;5.00;3.47;;;5.20;99.90;;;;;;5048357;28;20753;-73
2022/11/19 09:46:23;;;;;;;5.07;3.50;;;5.20;99.90;;;;;;5031972;28;20456;-73
2022/11/19 09:48:53;;;;;;;5.57;3.10;;;5.10;99.90;;;;;;5026049;28;20460;-73
2022/11/19 09:51:27;;;;;;;5.30;2.87;;;5.10;99.90;;;;;;5039668;28;20498;-73
2022/11/19 09:54:04;;;;;;;4.33;2.60;;;5.10;99.90;;;;;;5028841;28;20454;-73
2022/11/19 09:56:33;;;;;;;4.40;2.90;;;5.10;99.90;;;;;;5029760;28;20811;-72
2022/11/19 09:59:03;;;;;;;5.27;3.33;;;5.10;99.90;;;;;;5047329;28;20476;-73
2022/11/19 10:01:29;;;;;;;7.57;4.70;;;5.10;99.90;;;;;;5016257;28;20486;-72
2022/11/19 10:03:55;;;;;;;5.07;3.80;;;5.20;99.90;;;;;;5044919;28;20475;-72
2022/11/19 10:06:20;;;;;;;5.30;3.80;;;5.20;99.90;;;;;;5028514;28;20212;-72
2022/11/19 10:09:17;;;;;;;8.27;5.50;;;5.10;99.90;;;;;;5028970;28;20219;-73
2022/11/19 10:12:13;;;;;;;5.43;4.30;;;5.00;99.90;;;;;;5028348;28;20235;-72
2022/11/19 10:14:58;;;;;;;7.43;5.00;;;5.10;99.90;;;;;;5047480;28;20461;-71
2022/11/19 10:17:33;;;;;;;7.37;5.30;;;5.10;99.90;;;;;;5034114;28;20460;-73
2022/11/19 10:20:13;;;;;;;7.03;4.90;;;5.00;99.90;;;;;;5030906;28;20486;-73
2022/11/19 10:22:51;;;;;;;8.07;4.43;;;5.10;99.90;;;;;;5045022;28;20466;-73
2022/11/19 10:25:20;;;;;;;12.50;4.33;;;5.00;99.90;;;;;;5029891;28;20459;-73
2022/11/19 10:27:50;;;;;;;4.40;3.80;;;5.00;99.90;;;;;;5031157;28;20521;-73
2022/11/19 10:30:20;;;;;;;9.77;6.03;;;4.90;99.90;;;;;;5047394;28;20466;-73
2022/11/19 10:33:23;;;;;;;10.80;8.90;;;4.90;99.90;;;;;;5048596;28;20459;-72
2022/11/19 10:36:02;;;;;;;8.07;5.33;;;5.00;99.90;;;;;;5022854;28;20455;-73
2022/11/19 10:38:50;;;;;;;4.70;4.20;;;4.90;99.90;;;;;;5038706;28;20466;-73
2022/11/19 10:41:29;;;;;;;5.43;4.03;;;5.00;99.90;;;;;;5037876;28;20869;-73
2022/11/19 10:44:09;;;;;;;4.40;3.57;;;5.00;99.90;;;;;;5019497;28;20995;-73
2022/11/19 10:46:35;;;;;;;4.60;3.57;;;5.00;99.90;;;;;;5021182;28;20449;-72
2022/11/19 10:49:02;;;;;;;6.33;3.10;;;5.00;99.90;;;;;;5049755;28;20829;-73
2022/11/19 10:51:40;;;;;;;7.20;4.70;;;5.00;99.90;;;;;;5032751;28;20284;-73
2022/11/19 10:54:19;;;;;;;12.00;8.10;;;5.00;99.90;;;;;;5028310;28;20968;-73
2022/11/19 10:56:46;;;;;;;11.10;8.30;;;5.10;99.90;;;;;;5053191;28;20507;-73
2022/11/19 10:59:21;;;;;;;12.17;9.63;;;5.10;99.90;;;;;;5031752;28;20516;-72
2022/11/19 11:01:49;;;;;;;12.50;9.43;;;5.10;99.90;;;;;;5034075;28;20451;-73
2022/11/19 11:04:22;;;;;;;8.03;6.63;;;5.10;99.90;;;;;;5041052;28;20458;-73
2022/11/19 11:07:00;;;;;;;8.67;5.57;;;5.10;99.90;;;;;;5026734;28;20481;-73
2022/11/19 11:09:30;;;;;;;8.40;4.90;;;5.10;99.90;;;;;;5034849;28;20506;-73
2022/11/19 11:14:53;;;;;;;5.43;4.17;;;5.10;99.90;;;;;;5029720;28;20517;-73
2022/11/19 11:17:26;;;;;;;8.80;5.77;;;5.10;99.90;;;;;;5028279;28;20447;-73
2022/11/19 11:19:59;;;;;;;8.67;5.00;;;5.10;99.90;;;;;;5027009;28;20538;-72
2022/11/19 11:22:26;;;;;;;6.77;4.97;;;5.10;99.90;;;;;;5009342;28;20470;-73
2022/11/19 11:24:52;;;;;;;8.23;5.00;;;5.10;99.90;;;;;;5046509;28;20517;-73
2022/11/19 11:27:32;;;;;;;6.20;4.57;;;5.10;99.90;;;;;;5021447;28;20455;-73
2022/11/19 11:30:13;;;;;;;4.73;3.90;;;5.10;99.90;;;;;;5029151;28;20231;-73
2022/11/19 11:32:40;;;;;;;5.23;3.23;;;5.20;99.90;;;;;;5031871;28;20464;-73
2022/11/19 11:35:34;;;;;;;7.50;4.33;;;5.10;99.90;;;;;;5019724;28;20476;-73
2022/11/19 11:38:01;;;;;;;6.70;4.40;;;5.10;99.90;;;;;;5038173;28;20494;-73
2022/11/19 11:40:28;;;;;;;7.87;4.37;;;5.00;99.90;;;;;;5048632;28;20460;-72
2022/11/19 11:42:54;;;;;;;8.70;5.10;;;5.00;99.90;;;;;;5035312;28;20450;-73
2022/11/19 11:45:31;;;;;;;7.27;4.77;;;5.10;99.90;;;;;;5030617;28;20475;-73
2022/11/19 11:48:03;;;;;;;7.83;3.97;;;5.10;99.90;;;;;;5028022;28;20456;-73
2022/11/19 11:50:29;;;;;;;5.97;4.70;;;5.10;99.90;;;;;;5034511;28;20458;-73
2022/11/19 11:52:56;;;;;;;6.53;4.60;;;5.10;99.90;;;;;;5029300;28;20451;-73
2022/11/19 11:55:22;;;;;;;7.00;5.47;;;5.10;99.90;;;;;;5026789;28;20216;-73
2022/11/19 11:58:00;;;;;;;10.60;7.30;;;5.10;99.90;;;;;;5034395;28;20455;-73
2022/11/19 12:00:40;;;;;;;8.70;5.97;;;5.10;99.90;;;;;;5034850;28;20250;-73
2022/11/19 12:03:10;;;;;;;9.17;5.93;;;5.00;99.90;;;;;;5019668;28;20486;-72
2022/11/19 12:05:49;;;;;;;9.97;6.87;;;5.00;99.90;;;;;;5021121;28;20524;-73
2022/11/19 12:08:39;;;;;;;13.23;7.27;;;4.90;99.90;;;;;;5028544;28;20984;-73
2022/11/19 12:11:53;;;;;;;18.73;9.07;;;5.00;99.90;;;;;;5047406;28;20459;-73
2022/11/19 12:15:11;;;;;;;23.13;11.03;;;5.00;99.90;;;;;;5030862;28;20964;-73
2022/11/19 12:17:55;;;;;;;16.43;7.90;;;4.90;99.90;;;;;;4970908;28;20444;-73
2022/11/19 12:20:46;;;;;;;13.50;7.10;;;4.90;99.90;;;;;;5054441;28;20508;-73
2022/11/19 12:23:12;;;;;;;10.80;6.03;;;4.90;99.90;;;;;;5042979;28;20435;-73
2022/11/19 12:25:45;;;;;;;7.50;6.00;;;4.90;99.90;;;;;;5034588;28;20982;-72
2022/11/19 12:28:23;;;;;;;8.10;5.53;;;4.90;99.90;;;;;;5041299;28;20674;-72
2022/11/19 12:31:08;;;;;;;10.07;6.80;;;4.90;99.90;;;;;;5032931;28;20494;-73
2022/11/19 12:34:06;;;;;;;11.17;6.07;;;4.90;99.90;;;;;;5028156;28;20446;-73
2022/11/19 12:37:30;;;;;;;9.70;5.43;;;4.90;99.90;;;;;;5028134;28;20447;-73
2022/11/19 12:40:29;;;;;;;8.63;5.80;;;4.90;99.90;;;;;;4988595;28;20464;-73
2022/11/19 12:43:25;;;;;;;8.30;5.63;;;4.90;99.90;;;;;;5005990;28;20452;-73
2022/11/19 12:46:02;;;;;;;14.93;7.40;;;4.90;99.90;;;;;;5023779;28;20466;-72
2022/11/19 12:48:46;;;;;;;13.63;8.43;;;4.90;99.90;;;;;;5030148;28;20446;-73
2022/11/19 12:51:30;;;;;;;11.53;6.90;;;4.90;99.90;;;;;;5017088;28;20538;-73
2022/11/19 12:54:11;;;;;;;11.73;7.70;;;4.90;99.90;;;;;;5043939;28;20444;-73
2022/11/19 12:57:17;;;;;;;10.40;6.53;;;5.00;99.90;;;;;;5046158;28;20450;-73
2022/11/19 13:00:02;;;;;;;12.20;7.70;;;4.90;99.90;;;;;;5008415;28;20471;-73
2022/11/19 13:02:55;;;;;;;11.40;7.77;;;4.90;99.90;;;;;;5024098;28;20466;-73
2022/11/19 13:05:30;;;;;;;11.63;7.63;;;4.80;99.90;;;;;;5045051;28;20458;-73
2022/11/19 13:08:02;;;;;;;15.63;7.73;;;4.80;99.90;;;;;;5024381;28;20462;-73
2022/11/19 13:10:34;;;;;;;13.40;7.73;;;4.80;99.90;;;;;;5029208;28;20455;-73
2022/11/19 13:13:03;;;;;;;13.10;7.13;;;4.90;99.90;;;;;;5030219;28;20452;-73
2022/11/19 13:16:02;;;;;;;10.57;7.00;;;4.90;99.90;;;;;;5023167;28;20449;-72
2022/11/19 13:18:32;;;;;;;11.40;6.73;;;4.90;99.90;;;;;;5017497;28;21137;-72
2022/11/19 13:21:42;;;;;;;20.00;9.27;;;4.90;99.90;;;;;;5053480;28;20450;-72
2022/11/19 13:24:32;;;;;;;12.43;8.57;;;4.90;99.90;;;;;;5007582;28;20987;-73
2022/11/19 13:27:03;;;;;;;12.83;8.20;;;4.90;99.90;;;;;;5035282;28;20470;-73
2022/11/19 13:29:35;;;;;;;11.90;8.93;;;4.90;99.90;;;;;;5040458;28;20446;-73
2022/11/19 13:32:12;;;;;;;18.43;10.73;;;4.90;99.90;;;;;;5066627;28;20458;-73
2022/11/19 13:35:15;;;;;;;22.13;12.93;;;4.90;99.90;;;;;;5013917;28;20450;-73
2022/11/19 13:38:14;;;;;;;17.97;9.63;;;4.90;99.90;;;;;;5031496;28;20530;-73
2022/11/19 13:40:59;;;;;;;12.13;8.77;;;4.90;99.90;;;;;;5024623;28;20470;-72